sensor_id;sensor_type;location;lat;lon;timestamp;temperature;humidity
18444;DHT22;9350;53.176;8.194;2022-11-25T00:01:15;6.00;99.90
18444;DHT22;9350;53.176;8.194;2022-11-25T00:03:43;6.10;99.90
18444;DHT22;9350;53.176;8.194;2022-11-25T00:06:12;5.90;99.90
18444;DHT22;9350;53.176;8.194;2022-11-25T00:08:40;6.00;99.90
18444;DHT22;9350;53.176;8.194;2022-11-25T00:11:08;6.00;99.90
18444;DHT22;9350;53.176;8.194;2022-11-25T00:13:36;6.10;99.90
18444;DHT22;9350;53.176;8.194;2022-11-25T00:16:05;6.10;99.90
18444;DHT22;9350;53.176;8.194;2022-11-25T00:18:33;6.00;99.90
18444;DHT22;9350;53.176;8.194;2022-11-25T00:21:05;6.10;99.90
18444;DHT22;9350;53.176;8.194;2022-11-25T00:23:32;6.20;99.90
18444;DHT22;9350;53.176;8.194;2022-11-25T00:26:05;6.00;99.90
18444;DHT22;9350;53.176;8.194;2022-11-25T00:28:32;6.10;99.90
18444;DHT22;9350;53.176;8.194;2022-11-25T00:31:04;6.10;99.90
18444;DHT22;9350;53.176;8.194;2022-11-25T00:33:30;6.10;99.90
18444;DHT22;9350;53.176;8.194;2022-11-25T00:36:00;6.10;99.90
18444;DHT22;9350;53.176;8.194;2022-11-25T00:38:28;6.10;99.90
18444;DHT22;9350;53.176;8.194;2022-11-25T00:40:54;6.10;99.90
18444;DHT22;9350;53.176;8.194;2022-11-25T00:43:42;6.10;99.90
18444;DHT22;9350;53.176;8.194;2022-11-25T00:46:26;6.10;99.90
18444;DHT22;9350;53.176;8.194;2022-11-25T00:48:53;6.00;99.90
18444;DHT22;9350;53.176;8.194;2022-11-25T00:51:21;6.00;99.90
18444;DHT22;9350;53.176;8.194;2022-11-25T00:53:47;6.00;99.90
18444;DHT22;9350;53.176;8.194;2022-11-25T00:56:14;6.10;99.90
18444;DHT22;9350;53.176;8.194;2022-11-25T00:58:42;6.10;99.90
18444;DHT22;9350;53.176;8.194;2022-11-25T01:01:09;6.00;99.90
18444;DHT22;9350;53.176;8.194;2022-11-25T01:03:36;6.10;99.90
18444;DHT22;9350;53.176;8.194;2022-11-25T01:06:05;6.10;99.90
18444;DHT22;9350;53.176;8.194;2022-11-25T01:08:34;6.10;99.90
18444;DHT22;9350;53.176;8.194;2022-11-25T01:11:02;6.10;99.90
18444;DHT22;9350;53.176;8.194;2022-11-25T01:13:30;6.10;99.90
18444;DHT22;9350;53.176;8.194;2022-11-25T01:15:59;6.00;99.90
18444;DHT22;9350;53.176;8.194;2022-11-25T01:18:27;6.10;99.90
18444;DHT22;9350;53.176;8.194;2022-11-25T01:20:53;6.20;99.90
18444;DHT22;9350;53.176;8.194;2022-11-25T01:23:20;6.10;99.90
18444;DHT22;9350;53.176;8.194;2022-11-25T01:25:48;6.10;99.90
18444;DHT22;9350;53.176;8.194;2022-11-25T01:28:15;6.00;99.90
18444;DHT22;9350;53.176;8.194;2022-11-25T01:30:42;6.20;99.90
18444;DHT22;9350;53.176;8.194;2022-11-25T01:33:09;6.10;99.90
18444;DHT22;9350;53.176;8.194;2022-11-25T01:35:36;6.20;99.90
18444;DHT22;9350;53.176;8.194;2022-11-25T01:38:03;6.10;99.90
18444;DHT22;9350;53.176;8.194;2022-11-25T01:40:30;6.20;99.90
18444;DHT22;9350;53.176;8.194;2022-11-25T01:42:58;6.20;99.90
18444;DHT22;9350;53.176;8.194;2022-11-25T01:45:42;6.20;99.90
18444;DHT22;9350;53.176;8.194;2022-11-25T01:48:13;6.20;99.90
18444;DHT22;9350;53.176;8.194;2022-11-25T01:50:43;6.30;99.90
18444;DHT22;9350;53.176;8.194;2022-11-25T01:53:13;6.20;99.90
18444;DHT22;9350;53.176;8.194;2022-11-25T01:55:43;6.20;99.90
18444;DHT22;9350;53.176;8.194;2022-11-25T01:58:15;6.20;99.90
18444;DHT22;9350;53.176;8.194;2022-11-25T02:00:43;6.20;99.90
18444;DHT22;9350;53.176;8.194;2022-11-25T02:03:16;6.30;99.90
18444;DHT22;9350;53.176;8.194;2022-11-25T02:05:49;6.30;99.90
18444;DHT22;9350;53.176;8.194;2022-11-25T02:08:19;6.30;99.90
18444;DHT22;9350;53.176;8.194;2022-11-25T02:10:48;6.30;99.90
18444;DHT22;9350;53.176;8.194;2022-11-25T02:13:16;6.30;99.90
18444;DHT22;9350;53.176;8.194;2022-11-25T02:15:43;6.30;99.90
18444;DHT22;9350;53.176;8.194;2022-11-25T02:18:10;6.40;99.90
18444;DHT22;9350;53.176;8.194;2022-11-25T02:20:38;6.30;99.90
18444;DHT22;9350;53.176;8.194;2022-11-25T02:23:11;6.30;99.90
18444;DHT22;9350;53.176;8.194;2022-11-25T02:25:42;6.40;99.90
18444;DHT22;9350;53.176;8.194;2022-11-25T02:28:13;6.40;99.90
18444;DHT22;9350;53.176;8.194;2022-11-25T02:30:41;6.40;99.90
18444;DHT22;9350;53.176;8.194;2022-11-25T02:33:08;6.40;99.90
18444;DHT22;9350;53.176;8.194;2022-11-25T02:35:36;6.40;99.90
18444;DHT22;9350;53.176;8.194;2022-11-25T02:38:07;6.40;99.90
18444;DHT22;9350;53.176;8.194;2022-11-25T02:40:36;6.40;99.90
18444;DHT22;9350;53.176;8.194;2022-11-25T02:43:06;6.40;99.90
18444;DHT22;9350;53.176;8.194;2022-11-25T02:45:41;6.40;99.90
18444;DHT22;9350;53.176;8.194;2022-11-25T02:48:10;6.40;99.90
18444;DHT22;9350;53.176;8.194;2022-11-25T02:50:37;6.50;99.90
18444;DHT22;9350;53.176;8.194;2022-11-25T02:53:04;6.50;99.90
18444;DHT22;9350;53.176;8.194;2022-11-25T02:55:31;6.50;99.90
18444;DHT22;9350;53.176;8.194;2022-11-25T02:57:57;6.50;99.90
18444;DHT22;9350;53.176;8.194;2022-11-25T03:00:26;6.50;99.90
18444;DHT22;9350;53.176;8.194;2022-11-25T03:02:53;6.50;99.90
18444;DHT22;9350;53.176;8.194;2022-11-25T03:05:20;6.50;99.90
18444;DHT22;9350;53.176;8.194;2022-11-25T03:07:47;6.50;99.90
18444;DHT22;9350;53.176;8.194;2022-11-25T03:10:14;6.60;99.90
18444;DHT22;9350;53.176;8.194;2022-11-25T03:12:42;6.60;99.90
18444;DHT22;9350;53.176;8.194;2022-11-25T03:15:09;6.60;99.90
18444;DHT22;9350;53.176;8.194;2022-11-25T03:17:37;6.50;99.90
18444;DHT22;9350;53.176;8.194;2022-11-25T03:20:05;6.60;99.90
18444;DHT22;9350;53.176;8.194;2022-11-25T03:22:33;6.50;99.90
18444;DHT22;9350;53.176;8.194;2022-11-25T03:24:59;6.60;99.90
18444;DHT22;9350;53.176;8.194;2022-11-25T03:27:26;6.60;99.90
18444;DHT22;9350;53.176;8.194;2022-11-25T03:29:54;6.70;99.90
18444;DHT22;9350;53.176;8.194;2022-11-25T03:32:21;6.60;99.90
18444;DHT22;9350;53.176;8.194;2022-11-25T03:34:49;6.60;99.90
18444;DHT22;9350;53.176;8.194;2022-11-25T03:37:15;6.50;99.90
18444;DHT22;9350;53.176;8.194;2022-11-25T03:39:42;6.70;99.90
18444;DHT22;9350;53.176;8.194;2022-11-25T03:42:09;6.70;99.90
18444;DHT22;9350;53.176;8.194;2022-11-25T03:44:36;6.70;99.90
18444;DHT22;9350;53.176;8.194;2022-11-25T03:47:03;6.60;99.90
18444;DHT22;9350;53.176;8.194;2022-11-25T03:49:30;6.70;99.90
18444;DHT22;9350;53.176;8.194;2022-11-25T03:51:58;6.60;99.90
18444;DHT22;9350;53.176;8.194;2022-11-25T03:54:25;6.70;99.90
18444;DHT22;9350;53.176;8.194;2022-11-25T03:56:53;6.60;99.90
18444;DHT22;9350;53.176;8.194;2022-11-25T03:59:19;6.70;99.90
18444;DHT22;9350;53.176;8.194;2022-11-25T04:01:46;6.70;99.90
18444;DHT22;9350;53.176;8.194;2022-11-25T04:04:13;6.80;99.90
18444;DHT22;9350;53.176;8.194;2022-11-25T04:06:40;6.80;99.90
18444;DHT22;9350;53.176;8.194;2022-11-25T04:09:08;6.80;99.90
18444;DHT22;9350;53.176;8.194;2022-11-25T04:11:36;6.70;99.90
18444;DHT22;9350;53.176;8.194;2022-11-25T04:14:20;6.70;99.90
18444;DHT22;9350;53.176;8.194;2022-11-25T04:16:47;6.70;99.90
18444;DHT22;9350;53.176;8.194;2022-11-25T04:19:13;6.70;99.90
18444;DHT22;9350;53.176;8.194;2022-11-25T04:21:41;6.70;99.90
18444;DHT22;9350;53.176;8.194;2022-11-25T04:24:09;6.70;99.90
18444;DHT22;9350;53.176;8.194;2022-11-25T04:26:36;6.70;99.90
18444;DHT22;9350;53.176;8.194;2022-11-25T04:29:03;6.70;99.90
18444;DHT22;9350;53.176;8.194;2022-11-25T04:31:30;6.70;99.90
18444;DHT22;9350;53.176;8.194;2022-11-25T04:33:56;6.70;99.90
18444;DHT22;9350;53.176;8.194;2022-11-25T04:36:24;6.70;99.90
18444;DHT22;9350;53.176;8.194;2022-11-25T04:38:50;6.70;99.90
18444;DHT22;9350;53.176;8.194;2022-11-25T04:41:18;6.70;99.90
18444;DHT22;9350;53.176;8.194;2022-11-25T04:43:45;6.70;99.90
18444;DHT22;9350;53.176;8.194;2022-11-25T04:46:14;6.70;99.90
18444;DHT22;9350;53.176;8.194;2022-11-25T04:48:42;6.70;99.90
18444;DHT22;9350;53.176;8.194;2022-11-25T04:51:09;6.70;99.90
18444;DHT22;9350;53.176;8.194;2022-11-25T04:53:36;6.70;99.90
18444;DHT22;9350;53.176;8.194;2022-11-25T04:56:03;6.70;99.90
18444;DHT22;9350;53.176;8.194;2022-11-25T04:58:32;6.70;99.90
18444;DHT22;9350;53.176;8.194;2022-11-25T05:01:16;6.70;99.90
18444;DHT22;9350;53.176;8.194;2022-11-25T05:03:42;6.80;99.90
18444;DHT22;9350;53.176;8.194;2022-11-25T05:06:09;6.80;99.90
18444;DHT22;9350;53.176;8.194;2022-11-25T05:08:36;6.80;99.90
18444;DHT22;9350;53.176;8.194;2022-11-25T05:11:03;6.80;99.90
18444;DHT22;9350;53.176;8.194;2022-11-25T05:13:30;6.80;99.90
18444;DHT22;9350;53.176;8.194;2022-11-25T05:15:59;6.70;99.90
18444;DHT22;9350;53.176;8.194;2022-11-25T05:18:25;6.80;99.90
18444;DHT22;9350;53.176;8.194;2022-11-25T05:20:52;6.80;99.90
18444;DHT22;9350;53.176;8.194;2022-11-25T05:23:19;6.80;99.90
18444;DHT22;9350;53.176;8.194;2022-11-25T05:25:46;6.80;99.90
18444;DHT22;9350;53.176;8.194;2022-11-25T05:28:12;6.80;99.90
18444;DHT22;9350;53.176;8.194;2022-11-25T05:30:39;6.80;99.90
18444;DHT22;9350;53.176;8.194;2022-11-25T05:33:08;6.80;99.90
18444;DHT22;9350;53.176;8.194;2022-11-25T05:35:34;6.80;99.90
18444;DHT22;9350;53.176;8.194;2022-11-25T05:38:01;6.70;99.90
18444;DHT22;9350;53.176;8.194;2022-11-25T05:40:29;6.70;99.90
18444;DHT22;9350;53.176;8.194;2022-11-25T05:42:59;6.80;99.90
18444;DHT22;9350;53.176;8.194;2022-11-25T05:45:27;6.80;99.90
18444;DHT22;9350;53.176;8.194;2022-11-25T05:47:54;6.80;99.90
18444;DHT22;9350;53.176;8.194;2022-11-25T05:50:22;6.80;99.90
18444;DHT22;9350;53.176;8.194;2022-11-25T05:52:48;6.80;99.90
18444;DHT22;9350;53.176;8.194;2022-11-25T05:55:15;6.80;99.90
18444;DHT22;9350;53.176;8.194;2022-11-25T05:57:42;6.90;99.90
18444;DHT22;9350;53.176;8.194;2022-11-25T06:00:10;6.80;99.90
18444;DHT22;9350;53.176;8.194;2022-11-25T06:02:36;6.80;99.90
18444;DHT22;9350;53.176;8.194;2022-11-25T06:05:04;6.80;99.90
18444;DHT22;9350;53.176;8.194;2022-11-25T06:07:32;6.80;99.90
18444;DHT22;9350;53.176;8.194;2022-11-25T06:09:58;6.80;99.90
18444;DHT22;9350;53.176;8.194;2022-11-25T06:12:25;6.80;99.90
18444;DHT22;9350;53.176;8.194;2022-11-25T06:14:52;6.80;99.90
18444;DHT22;9350;53.176;8.194;2022-11-25T06:17:19;6.80;99.90
18444;DHT22;9350;53.176;8.194;2022-11-25T06:19:45;6.80;99.90
18444;DHT22;9350;53.176;8.194;2022-11-25T06:22:12;6.80;99.90
18444;DHT22;9350;53.176;8.194;2022-11-25T06:24:40;6.80;99.90
18444;DHT22;9350;53.176;8.194;2022-11-25T06:27:07;6.80;99.90
18444;DHT22;9350;53.176;8.194;2022-11-25T06:29:34;6.80;99.90
18444;DHT22;9350;53.176;8.194;2022-11-25T06:32:02;6.80;99.90
18444;DHT22;9350;53.176;8.194;2022-11-25T06:34:29;6.80;99.90
18444;DHT22;9350;53.176;8.194;2022-11-25T06:36:55;6.80;99.90
18444;DHT22;9350;53.176;8.194;2022-11-25T06:39:22;6.80;99.90
18444;DHT22;9350;53.176;8.194;2022-11-25T06:41:50;6.80;99.90
18444;DHT22;9350;53.176;8.194;2022-11-25T06:44:17;6.80;99.90
18444;DHT22;9350;53.176;8.194;2022-11-25T06:46:43;6.80;99.90
18444;DHT22;9350;53.176;8.194;2022-11-25T06:49:10;6.80;99.90
18444;DHT22;9350;53.176;8.194;2022-11-25T06:51:37;6.90;99.90
18444;DHT22;9350;53.176;8.194;2022-11-25T06:54:04;6.90;99.90
18444;DHT22;9350;53.176;8.194;2022-11-25T06:56:31;6.80;99.90
18444;DHT22;9350;53.176;8.194;2022-11-25T06:58:59;6.90;99.90
18444;DHT22;9350;53.176;8.194;2022-11-25T07:01:28;6.90;99.90
18444;DHT22;9350;53.176;8.194;2022-11-25T07:03:58;6.80;99.90
18444;DHT22;9350;53.176;8.194;2022-11-25T07:06:25;6.80;99.90
18444;DHT22;9350;53.176;8.194;2022-11-25T07:08:52;6.90;99.90
18444;DHT22;9350;53.176;8.194;2022-11-25T07:11:21;6.90;99.90
18444;DHT22;9350;53.176;8.194;2022-11-25T07:13:50;6.90;99.90
18444;DHT22;9350;53.176;8.194;2022-11-25T07:16:19;6.90;99.90
18444;DHT22;9350;53.176;8.194;2022-11-25T07:18:46;6.90;99.90
18444;DHT22;9350;53.176;8.194;2022-11-25T07:21:15;6.90;99.90
18444;DHT22;9350;53.176;8.194;2022-11-25T07:23:43;6.90;99.90
18444;DHT22;9350;53.176;8.194;2022-11-25T07:26:13;6.90;99.90
18444;DHT22;9350;53.176;8.194;2022-11-25T07:28:41;7.00;99.90
18444;DHT22;9350;53.176;8.194;2022-11-25T07:31:09;6.90;99.90
18444;DHT22;9350;53.176;8.194;2022-11-25T07:33:38;6.90;99.90
18444;DHT22;9350;53.176;8.194;2022-11-25T07:36:07;6.90;99.90
18444;DHT22;9350;53.176;8.194;2022-11-25T07:38:35;7.00;99.90
18444;DHT22;9350;53.176;8.194;2022-11-25T07:41:04;7.00;99.90
18444;DHT22;9350;53.176;8.194;2022-11-25T07:43:31;7.00;99.90
18444;DHT22;9350;53.176;8.194;2022-11-25T07:46:08;7.00;99.90
18444;DHT22;9350;53.176;8.194;2022-11-25T07:48:34;7.00;99.90
18444;DHT22;9350;53.176;8.194;2022-11-25T07:51:03;7.00;99.90
18444;DHT22;9350;53.176;8.194;2022-11-25T07:53:29;7.00;99.90
18444;DHT22;9350;53.176;8.194;2022-11-25T07:56:00;7.00;99.90
18444;DHT22;9350;53.176;8.194;2022-11-25T07:58:27;7.00;99.90
18444;DHT22;9350;53.176;8.194;2022-11-25T08:00:54;7.00;99.90
18444;DHT22;9350;53.176;8.194;2022-11-25T08:03:20;7.00;99.90
18444;DHT22;9350;53.176;8.194;2022-11-25T08:05:47;7.00;99.90
18444;DHT22;9350;53.176;8.194;2022-11-25T08:08:15;7.10;99.90
18444;DHT22;9350;53.176;8.194;2022-11-25T08:10:42;7.00;99.90
18444;DHT22;9350;53.176;8.194;2022-11-25T08:13:08;7.00;99.90
18444;DHT22;9350;53.176;8.194;2022-11-25T08:15:35;7.00;99.90
18444;DHT22;9350;53.176;8.194;2022-11-25T08:18:02;7.20;99.90
18444;DHT22;9350;53.176;8.194;2022-11-25T08:20:29;7.00;99.90
18444;DHT22;9350;53.176;8.194;2022-11-25T08:22:55;7.10;99.90
18444;DHT22;9350;53.176;8.194;2022-11-25T08:25:23;7.10;99.90
18444;DHT22;9350;53.176;8.194;2022-11-25T08:27:51;7.10;99.90
18444;DHT22;9350;53.176;8.194;2022-11-25T08:30:17;7.10;99.90
18444;DHT22;9350;53.176;8.194;2022-11-25T08:32:45;7.10;99.90
18444;DHT22;9350;53.176;8.194;2022-11-25T08:35:12;7.10;99.90
18444;DHT22;9350;53.176;8.194;2022-11-25T08:37:39;7.10;99.90
18444;DHT22;9350;53.176;8.194;2022-11-25T08:40:07;7.10;99.90
18444;DHT22;9350;53.176;8.194;2022-11-25T08:42:36;7.10;99.90
18444;DHT22;9350;53.176;8.194;2022-11-25T08:45:04;7.10;99.90
18444;DHT22;9350;53.176;8.194;2022-11-25T08:47:31;7.10;99.90
18444;DHT22;9350;53.176;8.194;2022-11-25T08:49:57;7.20;99.90
18444;DHT22;9350;53.176;8.194;2022-11-25T08:52:24;7.20;99.90
18444;DHT22;9350;53.176;8.194;2022-11-25T08:54:53;7.10;99.90
18444;DHT22;9350;53.176;8.194;2022-11-25T08:57:20;7.20;99.90
18444;DHT22;9350;53.176;8.194;2022-11-25T08:59:48;7.20;99.90
18444;DHT22;9350;53.176;8.194;2022-11-25T09:02:16;7.20;99.90
18444;DHT22;9350;53.176;8.194;2022-11-25T09:04:43;7.20;99.90
18444;DHT22;9350;53.176;8.194;2022-11-25T09:07:10;7.20;99.90
18444;DHT22;9350;53.176;8.194;2022-11-25T09:09:37;7.30;99.90
18444;DHT22;9350;53.176;8.194;2022-11-25T09:12:04;7.20;99.90
18444;DHT22;9350;53.176;8.194;2022-11-25T09:14:31;7.30;99.90
18444;DHT22;9350;53.176;8.194;2022-11-25T09:16:59;7.30;99.90
18444;DHT22;9350;53.176;8.194;2022-11-25T09:19:26;7.40;99.90
18444;DHT22;9350;53.176;8.194;2022-11-25T09:21:53;7.40;99.90
18444;DHT22;9350;53.176;8.194;2022-11-25T09:24:20;7.40;99.90
18444;DHT22;9350;53.176;8.194;2022-11-25T09:26:46;7.40;99.90
18444;DHT22;9350;53.176;8.194;2022-11-25T09:29:13;7.40;99.90
18444;DHT22;9350;53.176;8.194;2022-11-25T09:31:40;7.40;99.90
18444;DHT22;9350;53.176;8.194;2022-11-25T09:34:08;7.40;99.90
18444;DHT22;9350;53.176;8.194;2022-11-25T09:36:35;7.40;99.90
18444;DHT22;9350;53.176;8.194;2022-11-25T09:39:02;7.40;99.90
18444;DHT22;9350;53.176;8.194;2022-11-25T09:41:42;7.50;99.90
18444;DHT22;9350;53.176;8.194;2022-11-25T09:44:45;7.50;99.90
18444;DHT22;9350;53.176;8.194;2022-11-25T09:47:38;7.50;99.90
18444;DHT22;9350;53.176;8.194;2022-11-25T09:50:14;7.50;99.90
18444;DHT22;9350;53.176;8.194;2022-11-25T09:52:50;7.50;99.90
18444;DHT22;9350;53.176;8.194;2022-11-25T09:55:20;7.60;99.90
18444;DHT22;9350;53.176;8.194;2022-11-25T09:57:57;7.60;99.90
18444;DHT22;9350;53.176;8.194;2022-11-25T10:00:35;7.60;99.90
18444;DHT22;9350;53.176;8.194;2022-11-25T10:03:06;7.60;99.90
18444;DHT22;9350;53.176;8.194;2022-11-25T10:05:41;7.60;99.90
18444;DHT22;9350;53.176;8.194;2022-11-25T10:08:11;7.70;99.90
18444;DHT22;9350;53.176;8.194;2022-11-25T10:10:42;7.70;99.90
18444;DHT22;9350;53.176;8.194;2022-11-25T10:13:16;7.70;99.90
18444;DHT22;9350;53.176;8.194;2022-11-25T10:15:46;7.70;99.90
18444;DHT22;9350;53.176;8.194;2022-11-25T10:18:18;7.80;99.90
18444;DHT22;9350;53.176;8.194;2022-11-25T10:20:50;7.80;99.90
18444;DHT22;9350;53.176;8.194;2022-11-25T10:23:21;7.80;99.90
18444;DHT22;9350;53.176;8.194;2022-11-25T10:25:52;7.80;99.90
18444;DHT22;9350;53.176;8.194;2022-11-25T10:28:22;7.80;99.90
18444;DHT22;9350;53.176;8.194;2022-11-25T10:30:56;7.90;99.90
18444;DHT22;9350;53.176;8.194;2022-11-25T10:33:26;7.90;99.90
18444;DHT22;9350;53.176;8.194;2022-11-25T10:35:57;7.90;99.90
18444;DHT22;9350;53.176;8.194;2022-11-25T10:38:28;7.90;99.90
18444;DHT22;9350;53.176;8.194;2022-11-25T10:40:56;7.90;99.90
18444;DHT22;9350;53.176;8.194;2022-11-25T10:43:25;8.00;99.90
18444;DHT22;9350;53.176;8.194;2022-11-25T10:45:57;8.00;99.90
18444;DHT22;9350;53.176;8.194;2022-11-25T10:48:44;8.00;99.90
18444;DHT22;9350;53.176;8.194;2022-11-25T10:51:22;8.00;99.90
18444;DHT22;9350;53.176;8.194;2022-11-25T10:54:10;8.10;99.90
18444;DHT22;9350;53.176;8.194;2022-11-25T10:56:43;8.00;99.90
18444;DHT22;9350;53.176;8.194;2022-11-25T10:59:20;8.10;99.90
18444;DHT22;9350;53.176;8.194;2022-11-25T11:01:49;8.20;99.90
18444;DHT22;9350;53.176;8.194;2022-11-25T11:04:16;8.30;99.90
18444;DHT22;9350;53.176;8.194;2022-11-25T11:06:46;8.30;99.90
18444;DHT22;9350;53.176;8.194;2022-11-25T11:09:32;8.30;99.90
18444;DHT22;9350;53.176;8.194;2022-11-25T11:12:12;8.30;99.90
18444;DHT22;9350;53.176;8.194;2022-11-25T11:14:40;8.30;99.90
18444;DHT22;9350;53.176;8.194;2022-11-25T11:17:26;8.30;99.90
18444;DHT22;9350;53.176;8.194;2022-11-25T11:20:05;8.40;99.90
18444;DHT22;9350;53.176;8.194;2022-11-25T11:22:46;8.30;99.90
18444;DHT22;9350;53.176;8.194;2022-11-25T11:25:25;8.40;99.90
18444;DHT22;9350;53.176;8.194;2022-11-25T11:27:52;8.30;99.90
18444;DHT22;9350;53.176;8.194;2022-11-25T11:30:21;8.40;99.90
18444;DHT22;9350;53.176;8.194;2022-11-25T11:32:56;8.40;99.90
18444;DHT22;9350;53.176;8.194;2022-11-25T11:35:29;8.50;99.90
18444;DHT22;9350;53.176;8.194;2022-11-25T11:38:04;8.50;99.90
18444;DHT22;9350;53.176;8.194;2022-11-25T11:40:37;8.50;99.90
18444;DHT22;9350;53.176;8.194;2022-11-25T11:43:20;8.50;99.90
18444;DHT22;9350;53.176;8.194;2022-11-25T11:46:00;8.50;99.90
18444;DHT22;9350;53.176;8.194;2022-11-25T11:48:38;8.60;99.90
18444;DHT22;9350;53.176;8.194;2022-11-25T11:51:14;8.50;99.90
18444;DHT22;9350;53.176;8.194;2022-11-25T11:53:50;8.50;99.90
18444;DHT22;9350;53.176;8.194;2022-11-25T11:56:28;8.60;99.90
18444;DHT22;9350;53.176;8.194;2022-11-25T11:59:10;8.60;99.90
18444;DHT22;9350;53.176;8.194;2022-11-25T12:01:49;8.60;99.90
18444;DHT22;9350;53.176;8.194;2022-11-25T12:04:21;8.60;99.90
18444;DHT22;9350;53.176;8.194;2022-11-25T12:06:59;8.70;99.90
18444;DHT22;9350;53.176;8.194;2022-11-25T12:09:31;8.70;99.90
18444;DHT22;9350;53.176;8.194;2022-11-25T12:12:03;8.70;99.90
18444;DHT22;9350;53.176;8.194;2022-11-25T12:14:35;8.70;99.90
18444;DHT22;9350;53.176;8.194;2022-11-25T12:17:09;8.80;99.90
18444;DHT22;9350;53.176;8.194;2022-11-25T12:19:42;8.80;99.90
18444;DHT22;9350;53.176;8.194;2022-11-25T12:22:13;8.80;99.90
18444;DHT22;9350;53.176;8.194;2022-11-25T12:24:49;8.80;99.90
18444;DHT22;9350;53.176;8.194;2022-11-25T12:27:20;8.80;99.90
18444;DHT22;9350;53.176;8.194;2022-11-25T12:29:51;8.90;99.90
18444;DHT22;9350;53.176;8.194;2022-11-25T12:35:21;8.90;99.90
18444;DHT22;9350;53.176;8.194;2022-11-25T12:37:55;8.90;99.90
18444;DHT22;9350;53.176;8.194;2022-11-25T12:40:30;9.00;99.90
18444;DHT22;9350;53.176;8.194;2022-11-25T12:43:07;9.00;99.90
18444;DHT22;9350;53.176;8.194;2022-11-25T12:45:36;9.00;99.90
18444;DHT22;9350;53.176;8.194;2022-11-25T12:48:06;9.00;99.90
18444;DHT22;9350;53.176;8.194;2022-11-25T12:50:45;9.00;99.90
18444;DHT22;9350;53.176;8.194;2022-11-25T12:53:22;9.00;99.90
18444;DHT22;9350;53.176;8.194;2022-11-25T12:55:54;9.10;99.90
18444;DHT22;9350;53.176;8.194;2022-11-25T12:58:44;9.00;99.90
18444;DHT22;9350;53.176;8.194;2022-11-25T13:01:31;9.00;99.90
18444;DHT22;9350;53.176;8.194;2022-11-25T13:07:23;9.00;99.90
18444;DHT22;9350;53.176;8.194;2022-11-25T13:12:52;9.00;99.90
18444;DHT22;9350;53.176;8.194;2022-11-25T13:15:25;9.00;99.90
18444;DHT22;9350;53.176;8.194;2022-11-25T13:17:56;9.00;99.90
18444;DHT22;9350;53.176;8.194;2022-11-25T13:20:33;9.10;99.90
18444;DHT22;9350;53.176;8.194;2022-11-25T13:23:05;9.00;99.90
18444;DHT22;9350;53.176;8.194;2022-11-25T13:25:35;9.10;99.90
18444;DHT22;9350;53.176;8.194;2022-11-25T13:28:28;9.00;99.90
18444;DHT22;9350;53.176;8.194;2022-11-25T13:31:16;9.00;99.90
18444;DHT22;9350;53.176;8.194;2022-11-25T13:34:05;9.00;99.90
18444;DHT22;9350;53.176;8.194;2022-11-25T13:36:47;9.00;99.90
18444;DHT22;9350;53.176;8.194;2022-11-25T13:39:15;9.00;99.90
18444;DHT22;9350;53.176;8.194;2022-11-25T13:41:49;9.00;99.90
18444;DHT22;9350;53.176;8.194;2022-11-25T13:44:27;9.10;99.90
18444;DHT22;9350;53.176;8.194;2022-11-25T13:46:57;9.10;99.90
18444;DHT22;9350;53.176;8.194;2022-11-25T13:49:29;9.00;99.90
18444;DHT22;9350;53.176;8.194;2022-11-25T13:51:59;9.00;99.90
18444;DHT22;9350;53.176;8.194;2022-11-25T13:54:32;9.00;99.90
18444;DHT22;9350;53.176;8.194;2022-11-25T14:00:02;9.00;99.90
18444;DHT22;9350;53.176;8.194;2022-11-25T14:02:37;9.00;99.90
18444;DHT22;9350;53.176;8.194;2022-11-25T14:08:18;8.90;99.90
18444;DHT22;9350;53.176;8.194;2022-11-25T14:10:57;8.90;99.90
18444;DHT22;9350;53.176;8.194;2022-11-25T14:13:40;9.00;99.90
18444;DHT22;9350;53.176;8.194;2022-11-25T14:16:34;8.90;99.90
18444;DHT22;9350;53.176;8.194;2022-11-25T14:19:19;8.90;99.90
18444;DHT22;9350;53.176;8.194;2022-11-25T14:21:56;8.90;99.90
18444;DHT22;9350;53.176;8.194;2022-11-25T14:24:33;8.90;99.90
18444;DHT22;9350;53.176;8.194;2022-11-25T14:27:02;8.90;99.90
18444;DHT22;9350;53.176;8.194;2022-11-25T14:29:36;8.90;99.90
18444;DHT22;9350;53.176;8.194;2022-11-25T14:32:09;8.80;99.90
18444;DHT22;9350;53.176;8.194;2022-11-25T14:34:41;8.80;99.90
18444;DHT22;9350;53.176;8.194;2022-11-25T14:37:11;8.80;99.90
18444;DHT22;9350;53.176;8.194;2022-11-25T14:39:43;8.70;99.90
18444;DHT22;9350;53.176;8.194;2022-11-25T14:42:14;8.70;99.90
18444;DHT22;9350;53.176;8.194;2022-11-25T14:44:46;8.70;99.90
18444;DHT22;9350;53.176;8.194;2022-11-25T14:47:15;8.70;99.90
18444;DHT22;9350;53.176;8.194;2022-11-25T14:49:48;8.70;99.90
18444;DHT22;9350;53.176;8.194;2022-11-25T14:52:19;8.70;99.90
18444;DHT22;9350;53.176;8.194;2022-11-25T14:54:47;8.60;99.90
18444;DHT22;9350;53.176;8.194;2022-11-25T14:57:19;8.60;99.90
18444;DHT22;9350;53.176;8.194;2022-11-25T14:59:46;8.50;99.90
18444;DHT22;9350;53.176;8.194;2022-11-25T15:02:25;8.50;99.90
18444;DHT22;9350;53.176;8.194;2022-11-25T15:04:52;8.40;99.90
18444;DHT22;9350;53.176;8.194;2022-11-25T15:07:20;8.40;99.90
18444;DHT22;9350;53.176;8.194;2022-11-25T15:09:47;8.40;99.90
18444;DHT22;9350;53.176;8.194;2022-11-25T15:12:16;8.30;99.90
18444;DHT22;9350;53.176;8.194;2022-11-25T15:14:48;8.30;99.90
18444;DHT22;9350;53.176;8.194;2022-11-25T15:17:23;8.30;99.90
18444;DHT22;9350;53.176;8.194;2022-11-25T15:19:51;8.30;99.90
18444;DHT22;9350;53.176;8.194;2022-11-25T15:22:20;8.20;99.90
18444;DHT22;9350;53.176;8.194;2022-11-25T15:24:47;8.20;99.90
18444;DHT22;9350;53.176;8.194;2022-11-25T15:27:15;8.20;99.90
18444;DHT22;9350;53.176;8.194;2022-11-25T15:29:43;8.20;99.90
18444;DHT22;9350;53.176;8.194;2022-11-25T15:32:15;8.10;99.90
18444;DHT22;9350;53.176;8.194;2022-11-25T15:34:45;8.10;99.90
18444;DHT22;9350;53.176;8.194;2022-11-25T15:37:12;8.00;99.90
18444;DHT22;9350;53.176;8.194;2022-11-25T15:39:39;8.00;99.90
18444;DHT22;9350;53.176;8.194;2022-11-25T15:42:13;8.00;99.90
18444;DHT22;9350;53.176;8.194;2022-11-25T15:44:45;7.90;99.90
18444;DHT22;9350;53.176;8.194;2022-11-25T15:47:18;7.90;99.90
18444;DHT22;9350;53.176;8.194;2022-11-25T15:49:51;7.80;99.90
18444;DHT22;9350;53.176;8.194;2022-11-25T15:52:21;7.80;99.90
18444;DHT22;9350;53.176;8.194;2022-11-25T15:54:49;7.80;99.90
18444;DHT22;9350;53.176;8.194;2022-11-25T15:57:18;7.80;99.90
18444;DHT22;9350;53.176;8.194;2022-11-25T15:59:49;7.80;99.90
18444;DHT22;9350;53.176;8.194;2022-11-25T16:02:32;7.80;99.90
18444;DHT22;9350;53.176;8.194;2022-11-25T16:05:17;7.70;99.90
18444;DHT22;9350;53.176;8.194;2022-11-25T16:07:56;7.70;99.90
18444;DHT22;9350;53.176;8.194;2022-11-25T16:10:25;7.70;99.90
18444;DHT22;9350;53.176;8.194;2022-11-25T16:13:16;7.70;99.90
18444;DHT22;9350;53.176;8.194;2022-11-25T16:15:52;7.60;99.90
18444;DHT22;9350;53.176;8.194;2022-11-25T16:18:23;7.60;99.90
18444;DHT22;9350;53.176;8.194;2022-11-25T16:20:54;7.70;99.90
18444;DHT22;9350;53.176;8.194;2022-11-25T16:23:22;7.70;99.90
18444;DHT22;9350;53.176;8.194;2022-11-25T16:25:52;7.70;99.90
18444;DHT22;9350;53.176;8.194;2022-11-25T16:28:20;7.80;99.90
18444;DHT22;9350;53.176;8.194;2022-11-25T16:30:49;7.80;99.90
18444;DHT22;9350;53.176;8.194;2022-11-25T16:33:17;7.90;99.90
18444;DHT22;9350;53.176;8.194;2022-11-25T16:35:44;7.80;99.90
18444;DHT22;9350;53.176;8.194;2022-11-25T16:38:12;7.90;99.90